Time;durP1;ratioP1;P1;durP2;ratioP2;P2;SDS_P1;SDS_P2;PMS_P1;PMS_P2;Temp;Humidity;BMP_temperature;BMP_pressure;BME280_temperature;BME280_humidity;BME280_pressure;Samples;Min_cycle;Max_cycle;Signal;HPM_P1;HPM_P2
2022/12/23 00:04:47;;;;;;;657.78;320.17;;;;;;;8.83;100.00;100064.06;10537833;28;20090;-66
2022/12/23 00:09:49;;;;;;;770.63;383.33;;;;;;;8.81;100.00;100066.75;10537854;28;20044;-66
2022/12/23 00:15:07;;;;;;;1168.43;564.53;;;;;;;8.80;100.00;100074.63;10535318;28;20044;-66
2022/12/23 00:20:13;;;;;;;581.75;286.92;;;;;;;8.82;100.00;100078.81;10537451;28;20259;-66
2022/12/23 00:25:15;;;;;;;619.13;331.63;;;;;;;8.81;100.00;100078.91;10537005;28;20081;-66
2022/12/23 00:30:18;;;;;;;422.75;142.80;;;;;;;8.82;100.00;100096.19;10536894;28;20093;-65
2022/12/23 00:35:20;;;;;;;1463.20;725.92;;;;;;;8.82;100.00;100090.97;10537730;28;20101;-65
2022/12/23 00:45:42;;;;;;;1020.05;426.27;;;;;;;8.84;100.00;100096.97;10533739;28;20048;-65
2022/12/23 00:50:43;;;;;;;845.20;406.33;;;;;;;8.85;100.00;100111.66;10537041;28;20052;-66
2022/12/23 00:55:47;;;;;;;980.95;493.45;;;;;;;8.85;100.00;100119.47;10536328;28;20044;-65
2022/12/23 01:06:14;;;;;;;821.72;345.90;;;;;;;8.88;100.00;100134.94;10535903;28;20123;-65
2022/12/23 01:11:15;;;;;;;665.63;275.42;;;;;;;8.88;100.00;100135.78;10536006;28;20118;-66
2022/12/23 01:16:18;;;;;;;675.25;226.60;;;;;;;8.89;100.00;100144.44;10533395;28;20101;-66
2022/12/23 01:21:20;;;;;;;1338.93;602.72;;;;;;;8.88;100.00;100137.53;10535607;28;20128;-65
2022/12/23 01:26:22;;;;;;;739.60;314.88;;;;;;;8.88;100.00;100140.16;10536027;28;20056;-65
2022/12/23 01:31:27;;;;;;;783.20;343.15;;;;;;;8.85;100.00;100135.94;10535637;28;20044;-65
2022/12/23 01:36:28;;;;;;;781.60;295.60;;;;;;;8.84;100.00;100138.59;10535848;28;20063;-66
2022/12/23 01:46:53;;;;;;;1359.25;616.97;;;;;;;8.80;100.00;100142.25;10532975;28;20079;-66
2022/12/23 01:51:55;;;;;;;674.97;263.05;;;;;;;8.78;100.00;100157.94;10535021;28;20385;-66
2022/12/23 01:56:58;;;;;;;862.50;384.48;;;;;;;8.74;100.00;100154.66;10539387;28;20458;-67
2022/12/23 02:12:55;;;;;;;1588.47;776.58;;;;;;;8.70;100.00;100184.31;10543458;28;20076;-66
2022/12/23 02:18:25;;;;;;;1441.57;347.45;;;;;;;8.71;100.00;100180.78;10540073;28;20048;-66
2022/12/23 02:24:16;;;;;;;432.10;160.45;;;;;;;8.69;100.00;100187.81;10542167;28;20059;-66
2022/12/23 02:29:59;;;;;;;1270.60;488.05;;;;;;;8.71;100.00;100186.00;10541427;28;20075;-66
2022/12/23 02:35:12;;;;;;;390.08;168.02;;;;;;;8.71;100.00;100199.00;10541653;28;20082;-66
2022/12/23 02:40:30;;;;;;;885.60;301.90;;;;;;;8.74;100.00;100217.09;10541407;28;20223;-66
2022/12/23 02:45:40;;;;;;;760.00;306.48;;;;;;;8.75;100.00;100234.38;10539312;28;20097;-66
2022/12/23 02:50:46;;;;;;;946.58;137.32;;;;;;;8.76;100.00;100250.84;10540618;28;20461;-66
2022/12/23 02:55:51;;;;;;;692.72;216.73;;;;;;;8.76;100.00;100248.25;10540806;28;20135;-66
2022/12/23 03:00:55;;;;;;;651.92;319.95;;;;;;;8.77;100.00;100247.31;10540211;28;20450;-66
2022/12/23 03:05:58;;;;;;;1638.10;798.03;;;;;;;8.74;100.00;100243.09;10540837;28;20105;-66
2022/12/23 03:11:07;;;;;;;932.38;262.73;;;;;;;8.73;100.00;100257.00;10540147;28;20055;-65
2022/12/23 03:16:20;;;;;;;1628.63;799.92;;;;;;;8.76;100.00;100258.66;10537606;28;20512;-66
2022/12/23 03:21:34;;;;;;;1999.90;999.90;;;;;;;8.73;100.00;100253.56;10540192;28;20059;-66
2022/12/23 03:26:45;;;;;;;1658.30;812.10;;;;;;;8.72;100.00;100252.72;10539494;28;20115;-65
2022/12/23 03:31:49;;;;;;;1999.90;999.90;;;;;;;8.71;100.00;100245.84;10539531;28;20078;-65
2022/12/23 03:36:57;;;;;;;1620.93;787.05;;;;;;;8.70;100.00;100241.56;10538708;28;20496;-65
2022/12/23 03:42:07;;;;;;;1599.88;788.78;;;;;;;8.67;100.00;100246.03;10538620;28;20040;-65
2022/12/23 03:47:16;;;;;;;1683.95;811.85;;;;;;;8.63;100.00;100242.72;10536693;28;20101;-65
2022/12/23 03:52:30;;;;;;;1999.90;999.90;;;;;;;8.64;100.00;100241.81;10539140;28;20093;-66
2022/12/23 03:57:42;;;;;;;109.85;41.00;;;;;;;8.63;100.00;100255.72;10538512;28;20058;-66
2022/12/23 04:02:58;;;;;;;1999.90;999.90;;;;;;;8.62;100.00;100251.41;10537757;28;20064;-65
2022/12/23 04:08:13;;;;;;;1999.90;999.90;;;;;;;8.61;100.00;100257.53;10537683;28;20531;-65
2022/12/23 04:13:14;;;;;;;1541.88;763.10;;;;;;;8.59;100.00;100270.63;10538061;28;20121;-65
2022/12/23 04:18:16;;;;;;;1999.90;999.90;;;;;;;8.61;100.00;100273.16;10534682;28;20048;-65
2022/12/23 04:23:19;;;;;;;1036.28;512.72;;;;;;;8.60;100.00;100274.06;10537475;28;20044;-65
2022/12/23 04:28:21;;;;;;;1999.90;999.90;;;;;;;8.58;100.00;100283.69;10537645;28;20489;-65
2022/12/23 04:33:22;;;;;;;1295.75;553.42;;;;;;;8.56;100.00;100293.31;10537523;28;20109;-64
2022/12/23 04:38:25;;;;;;;1999.90;999.90;;;;;;;8.54;100.00;100308.13;10537568;28;20101;-65
2022/12/23 04:43:27;;;;;;;1999.90;999.90;;;;;;;8.52;100.00;100292.56;10535791;28;20560;-65
2022/12/23 04:48:30;;;;;;;1999.90;999.90;;;;;;;8.53;100.00;100291.69;10535748;28;20458;-65
2022/12/23 04:53:35;;;;;;;1999.90;999.90;;;;;;;8.53;100.00;100280.41;10536191;28;20121;-66
2022/12/23 04:58:37;;;;;;;1999.90;999.90;;;;;;;8.52;100.00;100276.13;10536221;28;20093;-65
2022/12/23 05:03:39;;;;;;;1999.90;999.90;;;;;;;8.48;100.00;100271.06;10536291;28;20105;-65
2022/12/23 05:08:42;;;;;;;1999.90;999.90;;;;;;;8.48;100.00;100270.19;10535820;28;20056;-65
2022/12/23 05:13:44;;;;;;;1999.90;999.90;;;;;;;8.49;100.00;100269.31;10533435;28;20552;-65
2022/12/23 05:18:46;;;;;;;1999.90;999.90;;;;;;;8.48;100.00;100286.66;10535279;28;20462;-65
2022/12/23 05:23:50;;;;;;;1999.90;999.90;;;;;;;8.49;100.00;100303.94;10535965;28;20052;-66
2022/12/23 05:28:52;;;;;;;1999.90;999.90;;;;;;;8.47;100.00;100318.78;10535664;28;20450;-65
2022/12/23 05:33:53;;;;;;;1999.90;999.90;;;;;;;8.48;100.00;100328.25;10544104;28;20078;-66
2022/12/23 05:38:57;;;;;;;1999.90;999.90;;;;;;;8.48;100.00;100336.06;10543416;28;20047;-66
2022/12/23 05:44:00;;;;;;;1999.90;999.90;;;;;;;8.48;100.00;100328.25;10541052;28;20511;-66
2022/12/23 05:49:01;;;;;;;1999.90;999.90;;;;;;;8.50;100.00;100334.25;10543236;28;20048;-65
2022/12/23 05:54:06;;;;;;;1999.90;999.90;;;;;;;8.48;100.00;100325.66;10542986;28;20048;-66
2022/12/23 05:59:07;;;;;;;1999.90;999.90;;;;;;;8.47;100.00;100313.56;10543186;28;20052;-66
2022/12/23 06:04:09;;;;;;;1999.90;999.90;;;;;;;8.46;100.00;100309.25;10542463;28;20128;-66
2022/12/23 06:09:12;;;;;;;1999.90;999.90;;;;;;;8.46;100.00;100306.66;10542252;28;20070;-66
2022/12/23 06:14:14;;;;;;;1999.90;999.90;;;;;;;8.45;100.00;100293.75;10539471;28;20551;-66
2022/12/23 06:19:17;;;;;;;1999.90;999.90;;;;;;;8.42;100.00;100291.28;10541849;28;20556;-66
2022/12/23 06:24:22;;;;;;;1999.90;999.90;;;;;;;8.42;100.00;100289.50;10541931;28;20530;-66
2022/12/23 06:29:24;;;;;;;1999.90;999.90;;;;;;;8.39;100.00;100284.47;10541831;28;20468;-66
2022/12/23 06:34:27;;;;;;;;;;;;;;;8.39;100.00;100289.66;10542071;28;20115;-66
2022/12/23 06:39:30;;;;;;;1999.90;999.90;;;;;;;8.40;100.00;100296.53;10541546;28;19964;-65
2022/12/23 06:44:32;;;;;;;1999.90;999.90;;;;;;;8.39;100.00;100297.47;10538184;28;20048;-65
2022/12/23 06:49:33;;;;;;;1999.90;999.90;;;;;;;8.40;100.00;100309.53;10541387;28;20044;-65
2022/12/23 06:54:36;;;;;;;1999.90;999.90;;;;;;;8.41;100.00;100323.41;10540973;28;20094;-65
2022/12/23 06:59:38;;;;;;;1999.90;999.90;;;;;;;8.40;100.00;100327.75;10541066;28;20060;-65
2022/12/23 07:04:40;;;;;;;1999.90;999.90;;;;;;;8.41;100.00;100345.03;10540343;28;20048;-65
2022/12/23 07:09:43;;;;;;;1999.90;999.90;;;;;;;8.43;100.00;100368.38;10540182;28;20051;-65
2022/12/23 07:14:45;;;;;;;1999.90;999.90;;;;;;;8.40;100.00;100363.28;10537906;28;20044;-66
2022/12/23 07:19:46;;;;;;;1999.90;999.90;;;;;;;8.39;100.00;100341.66;10539572;28;20048;-66
2022/12/23 07:24:49;;;;;;;1999.90;999.90;;;;;;;8.39;100.00;100346.88;10539842;28;20052;-66
2022/12/23 07:29:51;;;;;;;1999.90;999.90;;;;;;;8.35;100.00;100338.31;10539121;28;20040;-66
2022/12/23 07:34:53;;;;;;;592.25;334.45;;;;;;;8.35;100.00;100348.72;10540152;28;20102;-65
2022/12/23 07:39:56;;;;;;;98.25;87.70;;;;;;;8.37;100.00;100338.25;10538030;28;20044;-66
2022/12/23 07:44:57;;;;;;;100.60;77.03;;;;;;;8.36;100.00;100332.22;10534857;28;20323;-66
2022/12/23 07:49:59;;;;;;;96.10;64.72;;;;;;;8.35;100.00;100327.91;10538487;28;20089;-65
2022/12/23 07:55:02;;;;;;;85.22;59.47;;;;;;;8.35;100.00;100330.53;10536830;28;20054;-66
2022/12/23 08:00:07;;;;;;;73.45;57.50;;;;;;;8.34;100.00;100323.63;10536826;28;20048;-65
2022/12/23 08:05:09;;;;;;;80.07;55.45;;;;;;;8.33;100.00;100336.69;10536309;28;20071;-65
2022/12/23 08:10:12;;;;;;;82.72;73.90;;;;;;;8.29;100.00;100311.75;10536565;28;20354;-66
2022/12/23 08:15:14;;;;;;;93.80;83.68;;;;;;;8.28;100.00;100310.88;10533927;28;20423;-66
2022/12/23 08:20:16;;;;;;;92.45;84.10;;;;;;;8.28;100.00;100317.84;10536432;28;20109;-65
2022/12/23 08:25:19;;;;;;;98.03;89.07;;;;;;;8.29;100.00;100322.13;10535623;28;20052;-65
2022/12/23 08:30:21;;;;;;;98.82;88.93;;;;;;;8.29;100.00;100325.59;10535583;28;20052;-65
2022/12/23 08:35:23;;;;;;;78.65;71.25;;;;;;;8.31;100.00;100317.72;10536659;28;20473;-65
2022/12/23 08:40:26;;;;;;;107.80;98.53;;;;;;;8.31;100.00;100312.53;10537010;28;20044;-66
2022/12/23 08:45:27;;;;;;;107.57;97.05;;;;;;;8.34;100.00;100307.19;10529513;28;20044;-65
2022/12/23 08:50:29;;;;;;;81.88;73.82;;;;;;;8.31;100.00;100302.13;10536399;28;20052;-66
2022/12/23 08:55:38;;;;;;;76.40;69.07;;;;;;;8.29;100.00;100288.34;10536110;28;20500;-65
2022/12/23 09:00:40;;;;;;;74.22;67.43;;;;;;;8.29;100.00;100296.13;10536082;28;20427;-66
2022/12/23 09:05:42;;;;;;;82.15;74.00;;;;;;;8.29;100.00;100284.00;10535774;28;20052;-66
2022/12/23 09:10:45;;;;;;;78.18;70.43;;;;;;;8.27;100.00;100264.16;10536232;28;20078;-67
2022/12/23 09:15:47;;;;;;;93.07;84.45;;;;;;;8.27;100.00;100254.59;10533856;28;20055;-66
2022/12/23 09:20:48;;;;;;;74.38;65.43;;;;;;;8.27;100.00;100253.75;10535958;28;20047;-66
2022/12/23 09:25:51;;;;;;;82.75;76.07;;;;;;;8.28;100.00;100250.25;10535554;28;20109;-66
2022/12/23 09:30:53;;;;;;;66.28;60.33;;;;;;;8.29;100.00;100236.34;10535319;28;20121;-66
2022/12/23 09:36:00;;;;;;;64.00;57.35;;;;;;;8.29;100.00;100234.59;10535540;28;20109;-67
2022/12/23 09:41:12;;;;;;;95.20;87.30;;;;;;;8.29;100.00;100231.16;10535890;28;20074;-66
2022/12/23 09:46:20;;;;;;;63.28;57.90;;;;;;;8.33;100.00;100228.34;10533491;28;20063;-66
2022/12/23 09:51:23;;;;;;;56.13;51.55;;;;;;;8.34;100.00;100214.44;10535538;28;20044;-65
2022/12/23 09:56:39;;;;;;;59.53;54.85;;;;;;;8.34;100.00;100213.59;10532069;28;20056;-65
2022/12/23 10:01:50;;;;;;;61.10;55.35;;;;;;;8.36;100.00;100224.78;10532155;28;20055;-65
2022/12/23 10:07:12;;;;;;;69.90;63.85;;;;;;;8.35;100.00;100223.09;10535070;28;20067;-66
2022/12/23 10:12:29;;;;;;;104.90;96.45;;;;;;;8.36;100.00;100216.97;10534249;28;20052;-67
2022/12/23 10:17:41;;;;;;;62.15;56.85;;;;;;;8.33;100.00;100196.31;10536193;28;20048;-67
2022/12/23 10:22:46;;;;;;;65.75;59.08;;;;;;;8.37;100.00;100195.25;10541986;28;20048;-66
2022/12/23 10:27:49;;;;;;;65.00;59.88;;;;;;;8.37;100.00;100177.91;10542339;28;20052;-65
2022/12/23 10:33:04;;;;;;;65.45;60.25;;;;;;;8.49;100.00;100173.91;10541760;28;20442;-65
2022/12/23 10:38:26;;;;;;;66.68;61.55;;;;;;;8.56;100.00;100150.28;10542254;28;20040;-65
2022/12/23 10:43:45;;;;;;;60.42;54.92;;;;;;;8.70;100.00;100157.44;10541669;28;20084;-65
2022/12/23 10:49:03;;;;;;;66.75;61.10;;;;;;;8.68;100.00;100149.72;10541051;28;20040;-66
2022/12/23 10:54:11;;;;;;;121.28;112.70;;;;;;;8.63;100.00;100125.69;10540782;28;20043;-67
2022/12/23 10:59:22;;;;;;;61.15;55.63;;;;;;;8.55;100.00;100117.38;10540858;28;20153;-65
2022/12/23 11:04:34;;;;;;;63.78;59.40;;;;;;;8.50;100.00;100100.22;10540659;28;20098;-65
2022/12/23 11:09:40;;;;;;;58.55;53.72;;;;;;;8.50;100.00;100084.59;10539961;28;20109;-66
2022/12/23 11:14:55;;;;;;;57.30;53.08;;;;;;;8.54;100.00;100074.06;10537565;28;20082;-65
2022/12/23 11:21:57;;;;;;;55.33;50.90;;;;;;;8.55;100.00;100078.38;10744287;27;20374;-69
2022/12/23 11:27:03;;;;;;;57.92;53.63;;;;;;;8.43;100.00;100072.78;10701225;27;20046;-67
2022/12/23 11:32:18;;;;;;;56.05;51.67;;;;;;;8.39;100.00;100055.66;10700788;27;20097;-68
2022/12/23 11:37:36;;;;;;;59.65;55.35;;;;;;;8.33;100.00;100046.38;10700449;27;20076;-69
2022/12/23 11:42:42;;;;;;;73.57;68.07;;;;;;;8.32;100.00;100038.63;10700305;27;20120;-69
2022/12/23 11:47:43;;;;;;;63.08;58.08;;;;;;;8.28;100.00;100018.91;10683972;27;20434;-71
2022/12/23 11:52:52;;;;;;;71.20;64.15;;;;;;;8.21;100.00;100021.75;10700236;27;20466;-72
2022/12/23 11:57:56;;;;;;;62.75;57.35;;;;;;;8.14;100.00;99999.56;10699443;27;20099;-69
2022/12/23 12:03:04;;;;;;;73.72;67.80;;;;;;;8.09;100.00;99981.59;10699660;27;20049;-72
2022/12/23 12:08:13;;;;;;;65.35;60.03;;;;;;;8.06;100.00;99962.69;10699079;27;20131;-72
2022/12/23 12:13:26;;;;;;;68.25;61.97;;;;;;;8.06;100.00;99926.31;10699599;27;20251;-70
2022/12/23 12:18:28;;;;;;;63.38;58.50;;;;;;;8.09;100.00;99926.19;10696518;27;20084;-70
2022/12/23 12:23:44;;;;;;;65.38;60.45;;;;;;;8.17;100.00;99900.66;10698444;27;20462;-71
2022/12/23 12:28:52;;;;;;;66.88;61.33;;;;;;;8.24;100.00;99920.25;10687421;27;20051;-70
2022/12/23 12:34:04;;;;;;;62.78;58.53;;;;;;;8.29;100.00;99924.38;10651899;27;20129;-71
2022/12/23 12:39:35;;;;;;;86.63;80.10;;;;;;;8.27;100.00;99889.81;10653523;27;20467;-72
2022/12/23 12:44:51;;;;;;;96.83;88.50;;;;;;;8.19;100.00;99878.06;10625719;27;20055;-72
2022/12/23 12:50:02;;;;;;;89.70;81.50;;;;;;;8.25;100.00;99861.31;10626626;27;20047;-72
2022/12/23 12:55:19;;;;;;;106.05;96.38;;;;;;;8.22;100.00;99857.09;10625933;27;20055;-72
2022/12/23 13:00:23;;;;;;;99.82;89.93;;;;;;;8.14;100.00;99811.63;10625584;27;20039;-72
2022/12/23 13:05:59;;;;;;;108.72;97.72;;;;;;;8.11;100.00;99768.44;10626175;27;20057;-71
2022/12/23 13:11:13;;;;;;;119.97;109.80;;;;;;;8.10;100.00;99766.72;10625891;27;20557;-69
2022/12/23 13:16:33;;;;;;;121.28;109.90;;;;;;;8.07;100.00;99785.06;10623095;27;20472;-71
2022/12/23 13:21:46;;;;;;;88.10;81.28;;;;;;;8.03;100.00;99757.56;10624969;27;20461;-71
2022/12/23 13:27:05;;;;;;;252.73;227.45;;;;;;;8.03;100.00;99736.75;10624464;27;20069;-70
2022/12/23 13:32:23;;;;;;;101.22;94.97;;;;;;;7.97;100.00;99749.16;10624685;27;20065;-71
2022/12/23 13:37:39;;;;;;;167.65;151.95;;;;;;;7.95;100.00;99738.00;10624226;27;20051;-71
2022/12/23 13:42:51;;;;;;;142.80;130.40;;;;;;;7.92;100.00;99719.97;10623153;27;20057;-69
2022/12/23 13:48:19;;;;;;;110.25;100.90;;;;;;;7.91;100.00;99731.28;10620925;27;20451;-70
2022/12/23 13:53:43;;;;;;;139.90;123.25;;;;;;;7.92;100.00;99751.16;10623544;27;20051;-71
2022/12/23 13:58:49;;;;;;;107.13;99.13;;;;;;;7.92;100.00;99727.75;10623956;27;20116;-70
2022/12/23 14:03:51;;;;;;;69.97;65.25;;;;;;;7.93;100.00;99706.06;10622824;27;20455;-70
2022/12/23 14:08:55;;;;;;;132.68;119.90;;;;;;;7.97;100.00;99704.97;10623190;27;20103;-70
2022/12/23 14:14:01;;;;;;;78.53;74.32;;;;;;;7.98;100.00;99698.88;10621083;27;20452;-70
2022/12/23 14:19:41;;;;;;;62.67;58.83;;;;;;;8.01;100.00;99691.84;10622358;27;20096;-69
2022/12/23 14:25:27;;;;;;;65.88;61.90;;;;;;;8.01;100.00;99702.25;10622229;27;20379;-70
2022/12/23 14:30:36;;;;;;;77.85;73.70;;;;;;;8.03;100.00;99701.25;10621853;27;20088;-70
2022/12/23 14:35:55;;;;;;;61.25;57.78;;;;;;;8.05;100.00;99708.97;10621660;27;20088;-71
2022/12/23 14:41:35;;;;;;;64.55;60.45;;;;;;;8.08;100.00;99699.25;10621697;27;20459;-71
2022/12/23 14:46:57;;;;;;;64.07;60.10;;;;;;;8.14;100.00;99703.28;10618050;27;20486;-71
2022/12/23 14:52:37;;;;;;;67.00;62.88;;;;;;;8.28;100.00;99710.38;10621544;27;20406;-70
2022/12/23 14:57:38;;;;;;;74.78;70.18;;;;;;;8.36;100.00;99713.44;10621069;27;20043;-68
2022/12/23 15:02:42;;;;;;;77.28;72.72;;;;;;;8.61;100.00;99711.34;10621102;27;20051;-70
2022/12/23 15:07:47;;;;;;;93.35;87.82;;;;;;;8.84;100.00;99717.13;10621208;27;20100;-70
2022/12/23 15:12:55;;;;;;;175.35;165.48;;;;;;;9.11;100.00;99708.75;10620809;27;20057;-68
2022/12/23 15:18:05;;;;;;;1999.90;999.90;;;;;;;9.24;100.00;99721.94;10618095;27;20090;-68
2022/12/23 15:23:11;;;;;;;709.42;642.72;;;;;;;9.56;100.00;99723.66;10620403;27;20043;-66
2022/12/23 15:28:20;;;;;;;335.52;316.90;;;;;;;9.55;100.00;99735.88;10620620;27;20104;-67
2022/12/23 15:33:28;;;;;;;649.97;587.78;;;;;;;9.70;100.00;99731.56;10620470;27;20459;-67
2022/12/23 15:38:36;;;;;;;297.02;280.13;;;;;;;9.79;100.00;99743.22;10620331;27;20058;-68
2022/12/23 15:43:41;;;;;;;302.67;284.50;;;;;;;9.95;100.00;99745.78;10619943;27;20110;-70
2022/12/23 15:48:45;;;;;;;261.88;246.95;;;;;;;10.11;100.00;99760.53;10619301;27;20059;-68
2022/12/23 15:53:48;;;;;;;594.35;550.10;;;;;;;10.20;100.00;99762.63;10619964;27;20452;-68
2022/12/23 15:58:50;;;;;;;1561.85;997.63;;;;;;;10.34;100.00;99771.41;10620085;27;20043;-70
2022/12/23 16:03:57;;;;;;;289.15;269.08;;;;;;;10.46;100.00;99786.34;10620164;27;20110;-69
2022/12/23 16:09:03;;;;;;;454.92;412.33;;;;;;;10.54;100.00;99789.34;10627829;27;20051;-66
2022/12/23 16:14:31;;;;;;;108.35;101.45;;;;;;;10.54;100.00;99809.38;10624936;27;20502;-67
2022/12/23 16:19:41;;;;;;;1545.22;809.90;;;;;;;10.67;100.00;99815.53;10626826;27;20059;-71
2022/12/23 16:24:46;;;;;;;191.75;179.23;;;;;;;10.64;100.00;99841.00;10627479;27;20063;-77
2022/12/23 16:29:48;;;;;;;155.70;145.55;;;;;;;10.60;100.00;99840.31;10627034;27;20047;-67
2022/12/23 16:34:51;;;;;;;178.15;166.55;;;;;;;10.59;100.00;99837.78;10626935;27;20047;-68
2022/12/23 16:39:53;;;;;;;693.75;538.95;;;;;;;10.63;100.00;99849.72;10626539;27;20096;-67
2022/12/23 16:44:56;;;;;;;216.85;202.18;;;;;;;10.56;100.00;99857.94;10623623;27;20111;-65
2022/12/23 16:49:59;;;;;;;118.80;109.22;;;;;;;10.58;100.00;99868.28;10626300;27;20051;-66
2022/12/23 16:55:01;;;;;;;218.30;203.40;;;;;;;10.63;100.00;99875.81;10625828;27;20071;-67
2022/12/23 17:00:03;;;;;;;442.52;406.13;;;;;;;10.59;100.00;99874.31;10625680;27;20047;-65
2022/12/23 17:05:15;;;;;;;188.45;175.25;;;;;;;10.53;100.00;99875.50;10625385;27;20099;-66
2022/12/23 17:10:18;;;;;;;85.47;78.40;;;;;;;10.46;100.00;99885.47;10625458;27;20440;-69
2022/12/23 17:15:24;;;;;;;850.60;762.50;;;;;;;10.56;100.00;99896.22;10623249;27;20521;-68
2022/12/23 17:20:27;;;;;;;61.67;51.25;;;;;;;10.46;100.00;99910.69;10624480;27;20099;-66
2022/12/23 17:25:30;;;;;;;58.15;52.28;;;;;;;10.37;100.00;99925.91;10624464;27;20412;-66
2022/12/23 17:30:36;;;;;;;284.92;261.60;;;;;;;10.44;100.00;99918.59;10624370;27;20047;-68
2022/12/23 17:35:40;;;;;;;179.90;163.05;;;;;;;10.26;100.00;99923.91;10624635;27;20051;-73
2022/12/23 17:40:43;;;;;;;45.60;36.03;;;;;;;10.16;100.00;99920.13;10623905;27;20602;-74
2022/12/23 17:45:46;;;;;;;136.07;126.53;;;;;;;10.21;100.00;99928.56;10621325;27;20501;-69
2022/12/23 17:50:49;;;;;;;145.18;134.68;;;;;;;10.14;100.00;99932.44;10623650;27;20051;-69
2022/12/23 17:55:52;;;;;;;49.95;32.65;;;;;;;10.20;100.00;99950.34;10623351;27;20084;-67
2022/12/23 18:00:54;;;;;;;26.20;7.95;;;;;;;10.06;100.00;99951.09;10623223;27;20521;-69
2022/12/23 18:05:57;;;;;;;31.95;8.95;;;;;;;10.11;100.00;99958.66;10622848;27;20116;-69
2022/12/23 18:10:59;;;;;;;28.85;8.23;;;;;;;9.97;100.00;99965.47;10622976;27;20100;-71
2022/12/23 18:16:02;;;;;;;28.60;7.45;;;;;;;9.95;100.00;99962.09;10620208;27;20043;-68
2022/12/23 18:21:06;;;;;;;34.28;9.23;;;;;;;9.88;100.00;99959.00;10622284;27;20410;-71
2022/12/23 18:26:13;;;;;;;43.75;9.40;;;;;;;9.92;100.00;99975.28;10622382;27;20070;-68
2022/12/23 18:31:19;;;;;;;31.83;9.10;;;;;;;9.99;100.00;99987.06;10622007;27;20406;-68
2022/12/23 18:36:24;;;;;;;34.35;10.18;;;;;;;10.00;100.00;99983.56;10622173;27;20051;-67
2022/12/23 18:41:27;;;;;;;35.70;12.18;;;;;;;10.08;100.00;99990.97;10621886;27;20104;-67
2022/12/23 18:46:29;;;;;;;45.03;13.00;;;;;;;10.03;100.00;100003.41;10619304;27;20072;-69
2022/12/23 18:51:32;;;;;;;53.60;32.83;;;;;;;10.09;100.00;99997.03;10621411;27;20091;-67
2022/12/23 18:56:34;;;;;;;35.63;24.52;;;;;;;10.15;100.00;100007.09;10621306;27;20100;-69
2022/12/23 19:01:35;;;;;;;37.33;9.30;;;;;;;10.23;100.00;100004.91;10621322;27;20047;-67
2022/12/23 19:06:40;;;;;;;34.88;10.02;;;;;;;10.23;100.00;100010.13;10621155;27;20047;-67
2022/12/23 19:11:41;;;;;;;43.72;30.13;;;;;;;10.25;100.00;100013.50;10620770;27;20047;-68
2022/12/23 19:16:43;;;;;;;26.77;8.10;;;;;;;10.23;100.00;100014.53;10618082;27;20467;-71
2022/12/23 19:21:48;;;;;;;42.35;20.83;;;;;;;10.24;100.00;100005.78;10620317;27;20179;-71
2022/12/23 19:26:49;;;;;;;27.65;8.85;;;;;;;10.14;100.00;100016.72;10620928;27;20043;-67
2022/12/23 19:31:51;;;;;;;25.63;8.23;;;;;;;10.18;100.00;100022.59;10620336;27;20088;-69
2022/12/23 19:36:54;;;;;;;27.80;8.07;;;;;;;10.11;100.00;100029.03;10620330;27;20092;-69
2022/12/23 19:41:56;;;;;;;27.95;7.95;;;;;;;10.10;100.00;100040.41;10625708;27;20563;-65
2022/12/23 19:46:58;;;;;;;31.80;15.55;;;;;;;10.02;100.00;100044.25;10626743;27;20114;-68
2022/12/23 19:52:01;;;;;;;;;;;;;;;9.89;100.00;100057.09;10629428;27;20058;-68
2022/12/23 19:57:03;;;;;;;28.98;6.93;;;;;;;9.89;100.00;100074.50;10628152;27;19919;-67
2022/12/23 20:02:05;;;;;;;30.83;9.82;;;;;;;9.79;100.00;100084.56;10628168;27;20047;-68
2022/12/23 20:07:09;;;;;;;26.67;6.82;;;;;;;9.73;100.00;100101.34;10628119;27;20047;-72
2022/12/23 20:12:11;;;;;;;31.38;6.80;;;;;;;9.64;100.00;100112.22;10627990;27;20046;-73
2022/12/23 20:17:12;;;;;;;26.95;6.80;;;;;;;9.60;100.00;100126.31;10624853;27;20098;-69
2022/12/23 20:22:15;;;;;;;29.58;7.65;;;;;;;9.56;100.00;100145.63;10626989;27;20047;-69
2022/12/23 20:27:17;;;;;;;38.42;18.98;;;;;;;9.49;100.00;100156.38;10627052;27;20460;-71
2022/12/23 20:32:19;;;;;;;44.35;9.52;;;;;;;9.43;100.00;100166.22;10627116;27;20498;-68
2022/12/23 20:37:23;;;;;;;34.22;7.15;;;;;;;9.42;100.00;100180.16;10626746;27;20043;-67
2022/12/23 20:42:25;;;;;;;37.03;6.68;;;;;;;9.45;100.00;100191.28;10626415;27;20043;-67
2022/12/23 20:47:27;;;;;;;31.33;8.23;;;;;;;9.47;100.00;100207.69;10623779;27;20497;-70
2022/12/23 20:52:30;;;;;;;119.93;62.47;;;;;;;9.69;100.00;100222.28;10626046;27;20107;-73
2022/12/23 20:57:34;;;;;;;35.75;6.53;;;;;;;9.53;100.00;100220.41;10625977;27;20178;-67
2022/12/23 21:02:36;;;;;;;35.55;14.63;;;;;;;9.51;100.00;100227.44;10625682;27;20043;-68
2022/12/23 21:07:39;;;;;;;24.75;6.82;;;;;;;9.51;100.00;100240.47;10625467;27;20111;-69
2022/12/23 21:12:41;;;;;;;61.55;30.98;;;;;;;9.59;100.00;100244.47;10625614;27;20103;-68
2022/12/23 21:17:42;;;;;;;23.52;7.20;;;;;;;9.52;100.00;100244.75;10622183;27;20486;-69
2022/12/23 21:22:47;;;;;;;28.30;5.38;;;;;;;9.57;100.00;100256.72;10624985;27;20051;-68
2022/12/23 21:27:50;;;;;;;20.80;4.95;;;;;;;9.52;100.00;100255.19;10624627;27;20420;-68
2022/12/23 21:32:52;;;;;;;41.60;18.92;;;;;;;9.52;100.00;100263.00;10624586;27;20547;-69
2022/12/23 21:37:55;;;;;;;;;;;;;;;9.59;100.00;100268.78;10624847;27;20040;-67
2022/12/23 21:42:57;;;;;;;15.85;6.35;;;;;;;9.67;100.00;100273.59;10623945;27;19973;-67
2022/12/23 21:47:58;;;;;;;26.63;9.55;;;;;;;9.66;100.00;100279.75;10621650;27;20102;-68
2022/12/23 21:53:01;;;;;;;21.25;6.22;;;;;;;9.68;100.00;100264.03;10623596;27;20064;-68
2022/12/23 21:58:03;;;;;;;29.27;7.78;;;;;;;9.74;100.00;100282.81;10623537;27;20562;-70
2022/12/23 22:03:05;;;;;;;17.92;8.38;;;;;;;9.81;100.00;100274.72;10622298;27;20047;-68
2022/12/23 22:08:08;;;;;;;22.90;6.53;;;;;;;9.70;100.00;100285.63;10622886;27;20051;-64
2022/12/23 22:13:09;;;;;;;22.42;5.43;;;;;;;9.73;100.00;100307.19;10623206;27;20096;-68
2022/12/23 22:18:11;;;;;;;24.02;13.43;;;;;;;9.67;100.00;100315.28;10620359;27;20051;-69
2022/12/23 22:23:14;;;;;;;273.00;254.65;;;;;;;9.63;100.00;100318.97;10622401;27;20050;-68
2022/12/23 22:28:17;;;;;;;430.52;400.55;;;;;;;9.69;100.00;100329.09;10622208;27;20054;-66
2022/12/23 22:33:19;;;;;;;306.80;285.15;;;;;;;9.62;100.00;100328.53;10622015;27;20050;-65
2022/12/23 22:38:23;;;;;;;75.72;69.43;;;;;;;9.59;100.00;100348.69;10622318;27;20130;-67
2022/12/23 22:43:24;;;;;;;137.35;128.15;;;;;;;9.53;100.00;100340.25;10621608;27;20100;-70
2022/12/23 22:48:30;;;;;;;443.08;411.95;;;;;;;9.60;100.00;100332.97;10618996;27;20120;-69
2022/12/23 22:53:33;;;;;;;124.40;116.78;;;;;;;9.63;100.00;100337.19;10621857;27;20047;-68
2022/12/23 22:58:36;;;;;;;79.90;74.55;;;;;;;9.47;100.00;100344.88;10621547;27;20158;-68
2022/12/23 23:03:38;;;;;;;136.20;127.18;;;;;;;9.37;100.00;100350.50;10621154;27;20104;-68
2022/12/23 23:08:42;;;;;;;130.43;121.05;;;;;;;9.42;100.00;100358.13;10621365;27;20054;-69
2022/12/23 23:13:44;;;;;;;52.67;48.13;;;;;;;9.32;100.00;100370.72;10620507;27;20358;-68